createdAt,value
2018-09-23T00:00:36.827Z,15.98
2018-09-23T00:01:36.751Z,15.98
2018-09-23T00:02:36.674Z,15.95
2018-09-23T00:03:36.597Z,16.00
2018-09-23T00:04:36.535Z,15.98
2018-09-23T00:05:36.446Z,15.98
2018-09-23T00:06:36.368Z,15.97
2018-09-23T00:07:36.291Z,15.92
2018-09-23T00:08:36.218Z,16.00
2018-09-23T00:09:36.140Z,16.02
2018-09-23T00:10:36.061Z,15.95
2018-09-23T00:11:35.990Z,15.98
2018-09-23T00:12:35.910Z,16.01
2018-09-23T00:13:35.833Z,16.00
2018-09-23T00:14:35.762Z,16.00
2018-09-23T00:15:35.680Z,16.00
2018-09-23T00:16:35.606Z,15.92
2018-09-23T00:17:35.529Z,16.02
2018-09-23T00:18:35.450Z,15.98
2018-09-23T00:19:35.375Z,16.04
2018-09-23T00:20:35.298Z,15.92
2018-09-23T00:21:35.222Z,15.88
2018-09-23T00:22:35.151Z,16.01
2018-09-23T00:23:35.073Z,15.90
2018-09-23T00:24:34.990Z,15.88
2018-09-23T00:25:34.917Z,15.80
2018-09-23T00:26:34.840Z,15.88
2018-09-23T00:27:34.768Z,15.94
2018-09-23T00:28:34.686Z,15.82
2018-09-23T00:29:34.610Z,15.88
2018-09-23T00:30:34.534Z,15.82
2018-09-23T00:31:34.459Z,15.83
2018-09-23T00:32:34.382Z,15.92
2018-09-23T00:33:34.308Z,15.84
2018-09-23T00:34:34.233Z,15.80
2018-09-23T00:35:34.152Z,15.76
2018-09-23T00:36:34.076Z,15.84
2018-09-23T00:37:33.997Z,15.84
2018-09-23T00:38:33.922Z,15.82
2018-09-23T00:39:33.848Z,15.77
2018-09-23T00:40:33.772Z,15.76
2018-09-23T00:41:33.694Z,15.90
2018-09-23T00:42:33.630Z,15.82
2018-09-23T00:43:33.538Z,15.91
2018-09-23T00:44:33.464Z,15.80
2018-09-23T00:45:33.387Z,15.82
2018-09-23T00:46:33.307Z,15.83
2018-09-23T00:47:33.234Z,15.76
2018-09-23T00:48:33.155Z,15.79
2018-09-23T00:49:33.079Z,15.79
2018-09-23T00:50:33.002Z,15.76
2018-09-23T00:51:32.926Z,15.79
2018-09-23T00:52:32.850Z,15.67
2018-09-23T00:53:32.774Z,15.72
2018-09-23T00:54:32.695Z,15.67
2018-09-23T00:55:32.620Z,15.68
2018-09-23T00:56:32.551Z,15.70
2018-09-23T00:57:32.471Z,15.68
2018-09-23T00:58:32.390Z,15.70
2018-09-23T00:59:32.314Z,15.67
2018-09-23T01:00:32.237Z,15.68
2018-09-23T01:01:32.158Z,15.72
2018-09-23T01:02:32.085Z,15.65
2018-09-23T01:03:32.006Z,15.64
2018-09-23T01:04:31.930Z,15.67
2018-09-23T01:05:31.853Z,15.58
2018-09-23T01:06:31.783Z,15.57
2018-09-23T01:07:31.699Z,15.62
2018-09-23T01:08:31.622Z,15.68
2018-09-23T01:09:31.547Z,15.59
2018-09-23T01:10:31.473Z,15.65
2018-09-23T01:11:31.392Z,15.72
2018-09-23T01:12:31.316Z,15.70
2018-09-23T01:13:31.244Z,15.65
2018-09-23T01:14:31.164Z,15.72
2018-09-23T01:15:31.087Z,15.72
2018-09-23T01:16:31.008Z,15.68
2018-09-23T01:17:30.931Z,15.61
2018-09-23T01:18:30.853Z,15.64
2018-09-23T01:19:30.777Z,15.67
2018-09-23T01:20:30.701Z,15.57
2018-09-23T01:21:30.627Z,15.62
2018-09-23T01:22:30.546Z,15.61
2018-09-23T01:23:30.470Z,15.52
2018-09-23T01:24:30.400Z,15.51
2018-09-23T01:25:30.324Z,15.54
2018-09-23T01:26:30.241Z,15.58
2018-09-23T01:27:30.163Z,15.57
2018-09-23T01:28:30.087Z,15.59
2018-09-23T01:29:30.009Z,15.47
2018-09-23T01:30:29.935Z,15.54
2018-09-23T01:31:29.858Z,15.51
2018-09-23T01:32:29.780Z,15.47
2018-09-23T01:33:29.703Z,15.47
2018-09-23T01:34:29.625Z,15.47
2018-09-23T01:35:29.548Z,15.47
2018-09-23T01:36:29.480Z,15.42
2018-09-23T01:37:29.395Z,15.43
2018-09-23T01:38:29.319Z,15.43
2018-09-23T01:39:29.249Z,15.35
2018-09-23T01:40:29.165Z,15.43
2018-09-23T01:41:29.087Z,15.39
2018-09-23T01:42:29.011Z,15.46
2018-09-23T01:43:28.944Z,15.42
2018-09-23T01:44:28.858Z,15.40
2018-09-23T01:45:28.779Z,15.44
2018-09-23T01:46:28.715Z,15.49
2018-09-23T01:47:28.629Z,15.46
2018-09-23T01:48:28.550Z,15.40
2018-09-23T01:49:28.473Z,15.52
2018-09-23T01:50:28.404Z,15.43
2018-09-23T01:51:28.318Z,15.43
2018-09-23T01:52:28.239Z,15.44
2018-09-23T01:53:28.164Z,15.47
2018-09-23T01:54:28.090Z,15.43
2018-09-23T01:55:28.015Z,15.47
2018-09-23T01:56:27.943Z,15.47
2018-09-23T01:57:27.870Z,15.46
2018-09-23T01:58:27.780Z,15.44
2018-09-23T01:59:27.704Z,15.44
2018-09-23T02:00:27.627Z,15.44
2018-09-23T02:01:27.552Z,15.47
2018-09-23T02:02:27.474Z,15.44
2018-09-23T02:03:27.396Z,15.40
2018-09-23T02:04:27.338Z,15.42
2018-09-23T02:05:27.246Z,15.44
2018-09-23T02:06:27.166Z,15.40
2018-09-23T02:07:27.089Z,15.44
2018-09-23T02:08:27.012Z,15.46
2018-09-23T02:09:26.935Z,15.46
2018-09-23T02:10:26.860Z,15.47
2018-09-23T02:11:26.783Z,15.55
2018-09-23T02:12:26.705Z,15.52
2018-09-23T02:13:26.627Z,15.44
2018-09-23T02:14:26.552Z,15.47
2018-09-23T02:15:26.476Z,15.51
2018-09-23T02:16:26.399Z,15.46
2018-09-23T02:17:26.320Z,15.47
2018-09-23T02:18:26.242Z,15.43
2018-09-23T02:19:26.166Z,15.39
2018-09-23T02:20:26.088Z,15.39
2018-09-23T02:21:26.013Z,15.51
2018-09-23T02:22:25.936Z,15.47
2018-09-23T02:23:25.860Z,15.51
2018-09-23T02:24:25.780Z,15.43
2018-09-23T02:25:25.705Z,15.46
2018-09-23T02:26:25.634Z,15.43
2018-09-23T02:27:25.551Z,15.43
2018-09-23T02:28:25.474Z,15.46
2018-09-23T02:29:25.399Z,15.47
2018-09-23T02:30:25.329Z,15.39
2018-09-23T02:31:25.243Z,15.43
2018-09-23T02:32:25.169Z,15.46
2018-09-23T02:33:25.091Z,15.39
2018-09-23T02:34:25.016Z,15.42
2018-09-23T02:35:24.939Z,15.40
2018-09-23T02:36:24.862Z,15.46
2018-09-23T02:37:24.784Z,15.46
2018-09-23T02:38:24.707Z,15.46
2018-09-23T02:39:24.628Z,15.47
2018-09-23T02:40:24.560Z,15.49
2018-09-23T02:41:24.474Z,15.47
2018-09-23T02:42:24.402Z,15.44
2018-09-23T02:43:24.321Z,15.43
2018-09-23T02:44:24.246Z,15.40
2018-09-23T02:45:24.167Z,15.49
2018-09-23T02:46:24.094Z,15.43
2018-09-23T02:47:24.014Z,15.44
2018-09-23T02:48:23.937Z,15.51
2018-09-23T02:49:23.861Z,15.49
2018-09-23T02:50:23.817Z,15.47
2018-09-23T02:51:23.712Z,15.46
2018-09-23T02:52:23.631Z,15.52
2018-09-23T02:53:23.557Z,15.46
2018-09-23T02:54:23.478Z,15.43
2018-09-23T02:55:23.403Z,15.43
2018-09-23T02:56:23.323Z,15.42
2018-09-23T02:57:23.246Z,15.43
2018-09-23T02:58:23.169Z,15.43
2018-09-23T02:59:23.093Z,15.44
2018-09-23T03:00:23.026Z,15.44
2018-09-23T03:01:22.938Z,15.42
2018-09-23T03:02:22.861Z,15.46
2018-09-23T03:03:22.784Z,15.51
2018-09-23T03:04:22.707Z,15.47
2018-09-23T03:05:22.650Z,15.37
2018-09-23T03:06:22.558Z,15.42
2018-09-23T03:07:22.476Z,15.33
2018-09-23T03:08:22.399Z,15.35
2018-09-23T03:09:22.326Z,15.22
2018-09-23T03:10:22.246Z,15.18
2018-09-23T03:11:22.168Z,15.24
2018-09-23T03:12:22.096Z,15.25
2018-09-23T03:13:22.018Z,15.21
2018-09-23T03:14:21.946Z,15.24
2018-09-23T03:15:21.860Z,15.18
2018-09-23T03:16:21.784Z,15.22
2018-09-23T03:17:21.707Z,15.17
2018-09-23T03:18:21.632Z,15.25
2018-09-23T03:19:21.555Z,15.15
2018-09-23T03:20:21.505Z,15.18
2018-09-23T03:21:21.399Z,15.15
2018-09-23T03:22:21.320Z,15.24
2018-09-23T03:23:21.244Z,15.11
2018-09-23T03:24:21.165Z,15.24
2018-09-23T03:25:21.107Z,15.15
2018-09-23T03:26:21.013Z,15.15
2018-09-23T03:27:20.935Z,15.11
2018-09-23T03:28:20.857Z,15.10
2018-09-23T03:29:20.775Z,15.07
2018-09-23T03:30:20.702Z,15.07
2018-09-23T03:31:20.626Z,15.04
2018-09-23T03:32:20.549Z,15.07
2018-09-23T03:33:20.470Z,15.10
2018-09-23T03:34:20.393Z,14.97
2018-09-23T03:35:20.317Z,15.18
2018-09-23T03:36:20.237Z,15.17
2018-09-23T03:37:20.170Z,15.09
2018-09-23T03:38:20.106Z,15.11
2018-09-23T03:39:20.010Z,15.09
2018-09-23T03:40:19.930Z,15.09
2018-09-23T03:41:19.851Z,15.14
2018-09-23T03:42:19.774Z,15.14
2018-09-23T03:43:19.696Z,15.06
2018-09-23T03:44:19.622Z,15.03
2018-09-23T03:45:19.540Z,15.07
2018-09-23T03:46:19.463Z,15.04
2018-09-23T03:47:19.387Z,15.02
2018-09-23T03:48:19.322Z,15.02
2018-09-23T03:49:19.231Z,14.99
2018-09-23T03:50:19.154Z,15.11
2018-09-23T03:51:19.082Z,15.11
2018-09-23T03:52:19.002Z,15.14
2018-09-23T03:53:18.920Z,15.11
2018-09-23T03:54:18.843Z,15.14
2018-09-23T03:55:18.767Z,15.19
2018-09-23T03:56:18.689Z,15.10
2018-09-23T03:57:18.611Z,15.11
2018-09-23T03:58:18.536Z,15.11
2018-09-23T03:59:18.468Z,15.14
2018-09-23T04:00:18.393Z,15.18
2018-09-23T04:01:18.308Z,15.14
2018-09-23T04:02:18.226Z,15.10
2018-09-23T04:03:18.150Z,15.17
2018-09-23T04:04:18.078Z,15.09
2018-09-23T04:05:17.991Z,15.10
2018-09-23T04:06:17.923Z,15.07
2018-09-23T04:07:17.839Z,15.09
2018-09-23T04:08:17.762Z,15.03
2018-09-23T04:09:17.695Z,15.10
2018-09-23T04:10:17.627Z,15.03
2018-09-23T04:11:17.534Z,14.99
2018-09-23T04:12:17.453Z,15.10
2018-09-23T04:13:17.382Z,15.07
2018-09-23T04:14:17.300Z,15.04
2018-09-23T04:15:17.220Z,15.07
2018-09-23T04:16:17.142Z,15.14
2018-09-23T04:17:17.066Z,15.14
2018-09-23T04:18:16.994Z,15.11
2018-09-23T04:19:16.915Z,15.18
2018-09-23T04:20:16.835Z,15.03
2018-09-23T04:21:16.757Z,14.99
2018-09-23T04:22:16.701Z,15.15
2018-09-23T04:23:16.602Z,15.15
2018-09-23T04:24:16.523Z,15.11
2018-09-23T04:25:16.445Z,15.07
2018-09-23T04:26:16.366Z,15.18
2018-09-23T04:27:16.293Z,15.03
2018-09-23T04:28:16.218Z,15.10
2018-09-23T04:29:16.137Z,15.10
2018-09-23T04:30:16.057Z,15.11
2018-09-23T04:31:15.991Z,15.02
2018-09-23T04:32:15.909Z,15.00
2018-09-23T04:33:15.830Z,14.99
2018-09-23T04:34:15.747Z,14.99
2018-09-23T04:35:15.670Z,14.89
2018-09-23T04:36:15.594Z,14.88
2018-09-23T04:37:15.518Z,14.89
2018-09-23T04:38:15.440Z,14.89
2018-09-23T04:39:15.366Z,14.89
2018-09-23T04:40:15.285Z,14.88
2018-09-23T04:41:15.211Z,14.91
2018-09-23T04:42:15.130Z,14.85
2018-09-23T04:43:15.055Z,14.94
2018-09-23T04:44:14.973Z,14.85
2018-09-23T04:45:14.900Z,14.91
2018-09-23T04:46:14.817Z,14.86
2018-09-23T04:47:14.741Z,14.92
2018-09-23T04:48:14.668Z,14.86
2018-09-23T04:49:14.587Z,14.79
2018-09-23T04:50:14.507Z,14.79
2018-09-23T04:51:14.430Z,14.78
2018-09-23T04:52:14.352Z,14.78
2018-09-23T04:53:14.274Z,14.89
2018-09-23T04:54:14.197Z,14.91
2018-09-23T04:55:14.171Z,14.91
2018-09-23T04:56:14.044Z,14.94
2018-09-23T04:57:13.966Z,14.97
2018-09-23T04:58:13.887Z,14.88
2018-09-23T04:59:13.809Z,14.86
2018-09-23T05:00:13.740Z,14.88
2018-09-23T05:01:13.655Z,14.86
2018-09-23T05:02:13.576Z,14.96
2018-09-23T05:03:13.503Z,14.89
2018-09-23T05:04:13.424Z,14.96
2018-09-23T05:05:13.342Z,14.88
2018-09-23T05:06:13.265Z,14.99
2018-09-23T05:07:13.188Z,14.96
2018-09-23T05:08:13.113Z,14.97
2018-09-23T05:09:13.032Z,14.94
2018-09-23T05:10:12.955Z,14.96
2018-09-23T05:11:12.880Z,14.96
2018-09-23T05:12:12.807Z,14.94
2018-09-23T05:13:12.723Z,14.91
2018-09-23T05:14:12.649Z,14.88
2018-09-23T05:15:12.569Z,14.92
2018-09-23T05:16:12.492Z,14.92
2018-09-23T05:17:12.411Z,14.99
2018-09-23T05:18:12.340Z,14.94
2018-09-23T05:19:12.260Z,14.92
2018-09-23T05:20:12.184Z,14.96
2018-09-23T05:21:12.103Z,15.04
2018-09-23T05:22:12.025Z,14.96
2018-09-23T05:23:11.947Z,14.99
2018-09-23T05:24:11.869Z,14.96
2018-09-23T05:25:11.792Z,15.02
2018-09-23T05:26:11.716Z,14.84
2018-09-23T05:27:11.637Z,14.88
2018-09-23T05:28:11.571Z,14.89
2018-09-23T05:29:11.487Z,14.99
2018-09-23T05:30:11.407Z,14.88
2018-09-23T05:31:18.995Z,14.86
2018-09-23T05:33:23.305Z,14.84
2018-09-23T05:34:23.192Z,14.88
2018-09-23T05:36:16.478Z,14.91
2018-09-23T05:37:16.372Z,14.94
2018-09-23T05:39:22.088Z,15.02
2018-09-23T05:40:21.772Z,14.99
2018-09-23T05:42:25.885Z,15.02
2018-09-23T05:43:25.810Z,15.06
2018-09-23T05:45:22.531Z,14.96
2018-09-23T05:46:22.404Z,14.99
2018-09-23T05:48:26.737Z,14.96
2018-09-23T05:49:26.664Z,15.03
2018-09-23T05:51:31.033Z,15.02
2018-09-23T05:52:30.906Z,14.97
2018-09-23T05:54:35.259Z,15.11
2018-09-23T05:55:42.878Z,15.18
2018-09-23T05:57:39.446Z,14.97
2018-09-23T05:58:47.010Z,15.06
2018-09-23T06:00:43.765Z,15.17
2018-09-23T06:01:43.616Z,15.09
2018-09-23T06:03:47.916Z,15.03
2018-09-23T06:04:47.833Z,15.04
2018-09-23T06:05:47.758Z,14.99
2018-09-23T06:06:47.678Z,15.15
2018-09-23T06:07:47.608Z,15.07
2018-09-23T06:08:47.579Z,15.03
2018-09-23T06:09:47.446Z,15.18
2018-09-23T06:10:47.369Z,15.14
2018-09-23T06:11:47.295Z,15.15
2018-09-23T06:12:47.217Z,14.99
2018-09-23T06:13:47.137Z,15.14
2018-09-23T06:14:47.064Z,15.10
2018-09-23T06:15:46.984Z,15.14
2018-09-23T06:16:46.906Z,15.04
2018-09-23T06:17:46.828Z,15.03
2018-09-23T06:18:46.757Z,15.14
2018-09-23T06:19:46.674Z,15.02
2018-09-23T06:20:46.599Z,15.11
2018-09-23T06:21:46.517Z,15.18
2018-09-23T06:22:46.440Z,15.07
2018-09-23T06:23:46.366Z,15.11
2018-09-23T06:24:46.290Z,15.14
2018-09-23T06:25:46.249Z,15.04
2018-09-23T06:26:46.133Z,15.11
2018-09-23T06:27:46.060Z,15.17
2018-09-23T06:28:45.980Z,15.11
2018-09-23T06:29:45.919Z,15.03
2018-09-23T06:30:45.832Z,15.07
2018-09-23T06:31:45.749Z,15.18
2018-09-23T06:32:45.671Z,15.06
2018-09-23T06:33:45.595Z,15.11
2018-09-23T06:34:45.514Z,14.99
2018-09-23T06:35:45.446Z,15.18
2018-09-23T06:36:45.360Z,15.04
2018-09-23T06:37:45.286Z,15.09
2018-09-23T06:38:45.207Z,15.09
2018-09-23T06:39:45.131Z,15.10
2018-09-23T06:40:45.053Z,15.07
2018-09-23T06:41:44.978Z,15.07
2018-09-23T06:42:44.906Z,14.96
2018-09-23T06:43:44.820Z,14.99
2018-09-23T06:44:44.747Z,15.02
2018-09-23T06:45:44.723Z,15.17
2018-09-23T06:46:44.592Z,15.14
2018-09-23T06:47:44.513Z,15.02
2018-09-23T06:48:44.436Z,15.10
2018-09-23T06:49:44.357Z,15.09
2018-09-23T06:50:44.279Z,15.09
2018-09-23T06:51:44.212Z,15.07
2018-09-23T06:52:44.129Z,15.18
2018-09-23T06:53:44.049Z,15.07
2018-09-23T06:54:43.974Z,15.19
2018-09-23T06:55:43.894Z,15.00
2018-09-23T06:56:43.824Z,15.10
2018-09-23T06:57:43.750Z,15.11
2018-09-23T06:58:43.674Z,15.14
2018-09-23T06:59:43.592Z,14.99
2018-09-23T07:00:43.512Z,15.11
2018-09-23T07:01:43.431Z,15.14
2018-09-23T07:02:43.353Z,15.09
2018-09-23T07:03:43.278Z,15.06
2018-09-23T07:04:43.280Z,15.10
2018-09-23T07:05:43.123Z,15.11
2018-09-23T07:06:43.048Z,15.11
2018-09-23T07:07:42.970Z,15.14
2018-09-23T07:08:42.895Z,15.15
2018-09-23T07:09:42.816Z,15.15
2018-09-23T07:10:42.744Z,15.07
2018-09-23T07:11:42.660Z,15.10
2018-09-23T07:12:42.582Z,15.06
2018-09-23T07:13:42.508Z,15.17
2018-09-23T07:14:42.435Z,15.09
2018-09-23T07:15:42.372Z,15.07
2018-09-23T07:16:42.276Z,15.14
2018-09-23T07:17:42.204Z,15.15
2018-09-23T07:18:42.118Z,15.14
2018-09-23T07:19:42.043Z,15.14
2018-09-23T07:20:41.975Z,15.03
2018-09-23T07:21:41.900Z,15.03
2018-09-23T07:22:41.812Z,15.07
2018-09-23T07:23:41.771Z,15.06
2018-09-23T07:24:41.658Z,15.07
2018-09-23T07:25:41.586Z,15.11
2018-09-23T07:26:41.505Z,14.99
2018-09-23T07:27:41.429Z,15.09
2018-09-23T07:28:41.349Z,15.06
2018-09-23T07:29:41.271Z,15.11
2018-09-23T07:30:41.197Z,15.10
2018-09-23T07:31:41.124Z,15.18
2018-09-23T07:32:41.042Z,15.14
2018-09-23T07:33:40.964Z,15.15
2018-09-23T07:34:40.889Z,15.14
2018-09-23T07:35:40.810Z,15.11
2018-09-23T07:36:40.745Z,15.17
2018-09-23T07:37:40.654Z,15.09
2018-09-23T07:38:40.577Z,15.15
2018-09-23T07:39:40.627Z,15.19
2018-09-23T07:40:40.430Z,15.04
2018-09-23T07:41:40.347Z,15.15
2018-09-23T07:42:40.270Z,15.10
2018-09-23T07:43:40.192Z,15.15
2018-09-23T07:44:40.132Z,15.14
2018-09-23T07:45:40.038Z,15.14
2018-09-23T07:46:39.959Z,15.19
2018-09-23T07:47:39.912Z,15.07
2018-09-23T07:48:39.868Z,15.15
2018-09-23T07:49:39.749Z,15.10
2018-09-23T07:50:39.649Z,14.99
2018-09-23T07:51:39.573Z,15.07
2018-09-23T07:52:39.496Z,15.09
2018-09-23T07:53:39.419Z,15.15
2018-09-23T07:54:39.364Z,15.03
2018-09-23T07:55:39.268Z,15.06
2018-09-23T07:56:39.324Z,15.17
2018-09-23T07:57:39.111Z,15.11
2018-09-23T07:58:39.032Z,15.14
2018-09-23T07:59:38.975Z,15.14
2018-09-23T08:00:38.880Z,15.17
2018-09-23T08:01:38.802Z,15.11
2018-09-23T08:02:38.721Z,15.18
2018-09-23T08:03:38.647Z,15.04
2018-09-23T08:04:38.570Z,15.11
2018-09-23T08:05:38.494Z,15.15
2018-09-23T08:06:38.422Z,15.11
2018-09-23T08:07:38.338Z,15.18
2018-09-23T08:08:38.259Z,15.00
2018-09-23T08:09:38.182Z,15.04
2018-09-23T08:10:38.104Z,15.02
2018-09-23T08:11:38.038Z,15.09
2018-09-23T08:12:38.106Z,15.07
2018-09-23T08:13:38.054Z,15.15
2018-09-23T08:14:38.231Z,15.11
2018-09-23T08:15:37.721Z,15.19
2018-09-23T08:16:37.647Z,15.18
2018-09-23T08:17:37.571Z,15.15
2018-09-23T08:18:37.491Z,15.11
2018-09-23T08:19:37.589Z,15.17
2018-09-23T08:20:37.559Z,15.19
2018-09-23T08:21:37.261Z,15.15
2018-09-23T08:22:37.178Z,15.11
2018-09-23T08:23:37.125Z,15.17
2018-09-23T08:24:37.024Z,15.18
2018-09-23T08:25:36.979Z,15.14
2018-09-23T08:26:36.968Z,15.17
2018-09-23T08:27:36.798Z,15.15
2018-09-23T08:28:36.716Z,15.17
2018-09-23T08:29:36.644Z,15.11
2018-09-23T08:30:36.577Z,15.15
2018-09-23T08:31:36.482Z,15.15
2018-09-23T08:32:36.407Z,15.17
2018-09-23T08:33:36.331Z,15.11
2018-09-23T08:34:36.254Z,15.18
2018-09-23T08:35:36.175Z,15.10
2018-09-23T08:36:36.096Z,15.19
2018-09-23T08:37:36.023Z,15.24
2018-09-23T08:38:35.949Z,15.17
2018-09-23T08:39:35.865Z,15.21
2018-09-23T08:40:35.795Z,15.10
2018-09-23T08:41:35.713Z,15.25
2018-09-23T08:42:35.634Z,15.22
2018-09-23T08:43:35.556Z,15.27
2018-09-23T08:44:35.480Z,15.25
2018-09-23T08:45:35.404Z,15.21
2018-09-23T08:46:35.326Z,15.21
2018-09-23T08:47:35.249Z,15.15
2018-09-23T08:48:35.171Z,15.15
2018-09-23T08:49:35.096Z,15.17
2018-09-23T08:50:35.020Z,15.24
2018-09-23T08:51:34.953Z,15.15
2018-09-23T08:52:34.877Z,15.17
2018-09-23T08:53:34.787Z,15.31
2018-09-23T08:54:34.708Z,15.21
2018-09-23T08:55:34.631Z,15.29
2018-09-23T08:56:34.554Z,15.24
2018-09-23T08:57:34.516Z,15.18
2018-09-23T08:58:34.400Z,15.21
2018-09-23T08:59:34.328Z,15.27
2018-09-23T09:00:34.246Z,15.24
2018-09-23T09:01:34.171Z,15.11
2018-09-23T09:02:34.097Z,15.21
2018-09-23T09:03:34.079Z,15.22
2018-09-23T09:04:33.943Z,15.25
2018-09-23T09:05:33.860Z,15.25
2018-09-23T09:06:33.805Z,15.24
2018-09-23T09:07:33.709Z,15.27
2018-09-23T09:08:33.653Z,15.19
2018-09-23T09:09:33.554Z,15.28
2018-09-23T09:10:33.474Z,15.24
2018-09-23T09:11:33.441Z,15.39
2018-09-23T09:12:33.320Z,15.36
2018-09-23T09:13:33.246Z,15.39
2018-09-23T09:14:33.164Z,15.42
2018-09-23T09:15:33.088Z,15.44
2018-09-23T09:16:33.012Z,15.40
2018-09-23T09:17:32.938Z,15.44
2018-09-23T09:18:32.951Z,15.39
2018-09-23T09:19:32.807Z,15.39
2018-09-23T09:20:32.716Z,15.43
2018-09-23T09:21:32.628Z,15.47
2018-09-23T09:22:32.555Z,15.46
2018-09-23T09:23:32.475Z,15.47
2018-09-23T09:24:32.396Z,15.49
2018-09-23T09:25:32.319Z,15.47
2018-09-23T09:26:32.307Z,15.52
2018-09-23T09:27:32.168Z,15.47
2018-09-23T09:28:32.088Z,15.47
2018-09-23T09:29:32.012Z,15.44
2018-09-23T09:30:31.935Z,15.51
2018-09-23T09:31:31.858Z,15.52
2018-09-23T09:32:31.784Z,15.52
2018-09-23T09:33:31.707Z,15.49
2018-09-23T09:34:31.629Z,15.52
2018-09-23T09:35:31.554Z,15.54
2018-09-23T09:36:31.479Z,15.52
2018-09-23T09:37:31.416Z,15.52
2018-09-23T09:38:31.342Z,15.51
2018-09-23T09:39:31.244Z,15.51
2018-09-23T09:40:31.167Z,15.49
2018-09-23T09:41:31.096Z,15.52
2018-09-23T09:42:31.013Z,15.65
2018-09-23T09:43:30.935Z,15.57
2018-09-23T09:44:30.865Z,15.62
2018-09-23T09:45:30.787Z,15.65
2018-09-23T09:46:30.709Z,15.58
2018-09-23T09:47:30.631Z,15.64
2018-09-23T09:48:30.553Z,15.68
2018-09-23T09:49:30.484Z,15.64
2018-09-23T09:50:30.399Z,15.64
2018-09-23T09:51:30.326Z,15.65
2018-09-23T09:52:30.255Z,15.64
2018-09-23T09:53:30.226Z,15.65
2018-09-23T09:54:30.113Z,15.67
2018-09-23T09:55:30.072Z,15.72
2018-09-23T09:56:29.941Z,15.70
2018-09-23T09:57:29.863Z,15.72
2018-09-23T09:58:29.787Z,15.75
2018-09-23T09:59:29.713Z,15.77
2018-09-23T10:00:29.633Z,15.75
2018-09-23T10:01:29.554Z,15.72
2018-09-23T10:02:29.483Z,15.67
2018-09-23T10:03:29.409Z,15.65
2018-09-23T10:04:29.330Z,15.72
2018-09-23T10:05:29.250Z,15.73
2018-09-23T10:06:29.175Z,15.76
2018-09-23T10:07:29.097Z,15.67
2018-09-23T10:08:29.021Z,15.75
2018-09-23T10:09:28.958Z,15.76
2018-09-23T10:10:28.870Z,15.77
2018-09-23T10:11:28.796Z,15.76
2018-09-23T10:12:28.718Z,15.70
2018-09-23T10:13:28.637Z,15.79
2018-09-23T10:17:55.734Z,15.92
2018-09-23T10:18:55.595Z,15.92
2018-09-23T10:21:01.958Z,15.94
2018-09-23T10:22:01.822Z,15.97
2018-09-23T10:24:06.142Z,16.00
2018-09-23T10:25:06.068Z,15.91
2018-09-23T10:27:10.440Z,16.05
2018-09-23T10:28:10.301Z,16.04
2018-09-23T10:30:14.633Z,16.15
2018-09-23T10:31:14.655Z,16.20
2018-09-23T10:33:18.881Z,16.26
2018-09-23T10:34:18.759Z,16.33
2018-09-23T10:36:12.108Z,16.43
2018-09-23T10:37:11.930Z,16.38
2018-09-23T10:39:16.251Z,16.39
2018-09-23T10:40:16.163Z,16.46
2018-09-23T10:42:20.520Z,16.47
2018-09-23T10:43:20.390Z,16.38
2018-09-23T10:44:20.314Z,16.46
2018-09-23T10:45:20.238Z,16.39
2018-09-23T10:46:20.177Z,16.43
2018-09-23T10:47:20.090Z,16.46
2018-09-23T10:48:20.016Z,16.51
2018-09-23T10:49:19.940Z,16.54
2018-09-23T10:50:19.865Z,16.50
2018-09-23T10:51:19.782Z,16.51
2018-09-23T10:52:19.714Z,16.57
2018-09-23T10:53:19.630Z,16.60
2018-09-23T10:54:19.553Z,16.51
2018-09-23T10:55:19.479Z,16.46
2018-09-23T10:56:19.405Z,16.51
2018-09-23T10:57:19.343Z,16.42
2018-09-23T10:58:19.256Z,16.47
2018-09-23T10:59:19.202Z,16.56
2018-09-23T11:00:19.098Z,16.58
2018-09-23T11:01:19.027Z,16.58
2018-09-23T11:02:18.970Z,16.60
2018-09-23T11:03:18.893Z,16.64
2018-09-23T11:04:18.832Z,16.64
2018-09-23T11:05:18.721Z,16.72
2018-09-23T11:06:18.650Z,16.65
2018-09-23T11:07:18.632Z,16.66
2018-09-23T11:08:18.492Z,16.75
2018-09-23T11:09:18.415Z,16.61
2018-09-23T11:10:18.341Z,16.64
2018-09-23T11:11:18.264Z,16.69
2018-09-23T11:12:18.196Z,16.66
2018-09-23T11:13:18.120Z,16.58
2018-09-23T11:14:18.044Z,16.61
2018-09-23T11:15:18.051Z,16.61
2018-09-23T11:16:17.896Z,16.69
2018-09-23T11:17:17.816Z,16.65
2018-09-23T11:18:17.746Z,16.65
2018-09-23T11:19:17.666Z,16.68
2018-09-23T11:20:17.582Z,16.64
2018-09-23T11:21:17.507Z,16.60
2018-09-23T11:22:17.433Z,16.57
2018-09-23T11:23:17.400Z,16.66
2018-09-23T11:24:17.284Z,16.60
2018-09-23T11:25:17.205Z,16.61
2018-09-23T11:26:17.130Z,16.61
2018-09-23T11:27:17.068Z,16.60
2018-09-23T11:28:16.977Z,16.60
2018-09-23T11:29:16.906Z,16.65
2018-09-23T11:30:16.827Z,16.71
2018-09-23T11:31:16.760Z,16.65
2018-09-23T11:32:16.678Z,16.76
2018-09-23T11:33:16.606Z,16.76
2018-09-23T11:34:16.530Z,16.78
2018-09-23T11:35:16.455Z,16.79
2018-09-23T11:36:16.375Z,16.81
2018-09-23T11:37:16.297Z,16.87
2018-09-23T11:38:16.220Z,16.83
2018-09-23T11:39:16.151Z,16.91
2018-09-23T11:40:16.075Z,16.96
2018-09-23T11:41:16.002Z,16.93
2018-09-23T11:42:15.918Z,16.96
2018-09-23T11:43:15.851Z,16.96
2018-09-23T11:44:15.778Z,16.97
2018-09-23T11:45:15.696Z,16.97
2018-09-23T11:46:15.616Z,17.05
2018-09-23T11:47:15.541Z,17.06
2018-09-23T11:48:15.469Z,17.08
2018-09-23T11:49:15.393Z,17.06
2018-09-23T11:50:15.314Z,17.16
2018-09-23T11:51:15.239Z,17.14
2018-09-23T11:52:15.164Z,17.20
2018-09-23T11:53:15.094Z,17.23
2018-09-23T11:54:15.013Z,17.23
2018-09-23T11:55:14.946Z,17.26
2018-09-23T11:56:14.862Z,17.24
2018-09-23T11:57:14.790Z,17.26
2018-09-23T11:58:14.711Z,17.29
2018-09-23T11:59:14.638Z,17.31
2018-09-23T12:00:14.680Z,17.33
2018-09-23T12:01:14.485Z,17.34
2018-09-23T12:02:14.438Z,17.39
2018-09-23T12:03:14.348Z,17.41
2018-09-23T12:04:14.273Z,17.54
2018-09-23T12:05:14.185Z,17.57
2018-09-23T12:06:14.112Z,17.59
2018-09-23T12:07:14.043Z,17.54
2018-09-23T12:08:13.968Z,17.60
2018-09-23T12:09:13.887Z,17.54
2018-09-23T12:10:13.850Z,17.57
2018-09-23T12:11:13.739Z,17.54
2018-09-23T12:12:13.662Z,17.54
2018-09-23T12:13:13.587Z,17.52
2018-09-23T12:14:13.518Z,17.48
2018-09-23T12:15:13.437Z,17.57
2018-09-23T12:16:13.366Z,17.54
2018-09-23T12:17:13.288Z,17.54
2018-09-23T12:42:26.809Z,18.13
2018-09-23T12:43:28.416Z,18.07
2018-09-23T12:45:31.205Z,18.13
2018-09-23T12:46:33.652Z,18.29
2018-09-23T12:48:37.886Z,18.28
2018-09-23T12:49:36.128Z,18.23
2018-09-23T12:51:40.000Z,18.63
2018-09-23T12:52:40.132Z,18.70
2018-09-23T12:54:48.359Z,19.09
2018-09-23T12:55:48.361Z,19.30
2018-09-23T12:56:47.117Z,19.16
2018-09-23T12:57:47.382Z,19.12
2018-09-23T12:58:46.839Z,19.07
2018-09-23T12:59:46.371Z,18.99
2018-09-23T13:00:46.444Z,19.11
2018-09-23T13:01:45.422Z,19.02
2018-09-23T13:02:47.862Z,19.08
2018-09-23T13:03:46.034Z,19.09
2018-09-23T13:04:45.688Z,19.09
2018-09-23T13:05:47.863Z,19.11
2018-09-23T13:06:45.077Z,19.12
2018-09-23T13:07:45.456Z,19.14
2018-09-23T13:08:45.368Z,19.27
2018-09-23T13:09:47.017Z,19.31
2018-09-23T13:10:44.705Z,19.27
2018-09-23T13:11:47.376Z,19.26
2018-09-23T13:12:47.368Z,19.11
2018-09-23T13:13:46.477Z,18.99
2018-09-23T13:14:45.427Z,18.99
2018-09-23T13:15:45.264Z,18.93
2018-09-23T13:16:46.805Z,18.90
2018-09-23T13:17:45.176Z,18.74
2018-09-23T13:18:45.723Z,18.88
2018-09-23T13:19:45.179Z,18.95
2018-09-23T13:20:45.263Z,19.02
2018-09-23T13:21:44.374Z,19.18
2018-09-23T13:22:44.262Z,19.00
2018-09-23T13:23:44.766Z,19.33
2018-09-23T13:24:43.653Z,19.26
2018-09-23T13:25:44.045Z,19.45
2018-09-23T13:26:46.283Z,19.36
2018-09-23T13:27:46.381Z,19.59
2018-09-23T13:28:45.872Z,19.73
2018-09-23T13:29:45.873Z,20.14
2018-09-23T13:30:43.951Z,20.37
2018-09-23T13:31:43.877Z,20.18
2018-09-23T13:32:43.902Z,20.06
2018-09-23T13:33:43.880Z,20.25
2018-09-23T13:34:44.153Z,20.11
2018-09-23T13:35:45.369Z,20.19
2018-09-23T13:36:45.368Z,20.52
2018-09-23T13:37:45.372Z,20.31
2018-09-23T13:38:45.379Z,20.19
2018-09-23T13:39:44.803Z,20.09
2018-09-23T13:40:45.375Z,20.09
2018-09-23T13:41:45.385Z,20.40
2018-09-23T13:42:44.886Z,20.24
2018-09-23T13:43:43.229Z,20.13